Tiempo atmosférico en la estación meteorológica de Baza, Granada (801 m.)



Fecha
DESCASC
Temp. máxima en grados centígrados (hora)
DESCASC
Temp. mínima en grados centígrados (hora)
DESCASC
Temp. media en grados centígrados
DESCASC
Racha de viento máxima en m/sg (hora)
DESCASC
Velocidad máxima media en intervalos de 10 minutos(hora)
DESCASC
Precipitaciones diarias en mm
DESCASC
Precipitaciones de 00:00 a 06:00 en mm
DESCASC
Precipitaciones de 06:00 a 12:00 en mm
DESCASC
Precipitaciones de 12:00 a 18:00 en mm
DESCASC
Precipitaciones de 18:00 a 24:00 en mm
DESCASC
10-11-2019 10.1 (01:50) 5.8 (00:00) 8 15 (17:20) 7.78 (16:00) 0 0 0 0 0
09-11-2019 14.6 (15:30) 2.7 (00:00) 8.7 12.22 (16:40) 7.5 (16:50) 0 0 0 0 0
08-11-2019 10.8 (15:20) 5.7 (00:00) 8.3 13.06 (13:30) 7.78 (11:40) 0 0 0 0 0
07-11-2019 16.8 (14:20) 6.6 (00:00) 11.7 13.33 (14:50) 8.33 (15:10) 0 0 0 0 0
06-11-2019 13.7 (13:40) 6.8 (00:00) 10.3 10 (17:20) 6.39 (17:30) 0 0 0 0 0
05-11-2019 13.8 (00:50) 8.4 (00:00) 11.1 16.39 (04:50) 10.28 (05:00) 0 0 0 0 0
04-11-2019 19.3 (13:30) 13.1 (00:00) 16.2 15.83 (15:20) 10 (14:20) 0 0 0 0 0
03-11-2019 18.8 (16:40) 13.2 (00:00) 16 19.72 (08:10) 12.22 (08:50) 0 0 0 0 0
02-11-2019 20.4 (13:00) 14.8 (00:00) 17.6 13.06 (16:10) 7.78 (16:10) 1.2 0 1.2 0 0
01-11-2019 22 (14:20) 15.3 (00:00) 18.7 11.11 (15:50) 7.5 (15:50) 0 0 0 0 0
31-10-2019 21.5 (15:40) 14.8 (05:10) 18.2 11.11 (15:00) 6.94 (15:00) 0 0 0 0 0
30-10-2019 21.9 (15:50) 5.6 (00:00) 13.7 8.33 (13:10) 5.28 (17:00) 0 0 0 0 0
29-10-2019 20.7 (15:30) 5.6 (00:00) 13.2 8.61 (16:00) 5.56 (15:50) 0 0 0 0 0
28-10-2019 22.5 (17:00) 6.2 (00:00) 14.3 6.94 (20:10) 5 (20:20) 0 0 0 0 0
27-10-2019 24.9 (15:50) 4.3 (00:00) 14.6 7.78 (19:00) 4.72 (17:50) 0 0 0 0 0
26-10-2019 25.3 (16:20) 2.8 (00:00) 14 5.56 (19:20) 3.33 (20:20) 0 0 0 0 0
25-10-2019 24.8 (17:50) 1.6 (00:00) 13.2 5.28 (21:30) 3.33 (20:30) 0 0 0 0 0
24-10-2019 15.3 (17:10) 8.4 (00:00) 11.8 11.39 (17:40) 7.22 (17:20) 0.2 0 0.2 0 0
23-10-2019 13.7 (14:00) 7.2 (00:00) 10.4 15 (13:00) 9.44 (13:10) 1.2 0 0 0 1.2
22-10-2019 12.7 (17:10) 8.5 (00:00) 10.6 7.5 (20:40) 4.72 (20:10) 0 0 0 0 0
21-10-2019 18.9 (16:50) 1.7 (00:00) 10.3 6.39 (18:30) 3.61 (18:40) 0 0 0 0 0
20-10-2019 17.6 (02:40) 8.7 (00:00) 13.2 15.28 (04:50) 8.33 (05:00) 2.4 1.4 1 0 0
19-10-2019 24.2 (16:00) 9.7 (00:00) 17 10 (19:10) 5.56 (19:20) 0 0 0 0 0
18-10-2019 25.1 (17:10) 5 (00:00) 15.1 8.06 (15:10) 5.56 (15:20) 0 0 0 0 0
17-10-2019 23.3 (17:10) 2.9 (00:00) 13.1 9.17 (13:10) 6.11 (13:10) 0 0 0 0 0
16-10-2019 24.2 (18:30) 1.7 (00:00) 13 6.67 (15:30) 4.17 (15:30) 0 0 0 0 0
15-10-2019 19.8 (17:30) 7.1 (00:00) 13.4 8.61 (01:00) 5.28 (01:00) 0 0 0 0 0
14-10-2019 23.7 (15:20) 13.9 (00:00) 18.8 16.67 (17:10) 10.83 (16:10) 0 0 0 0 0

Gráficas

Temp. máximas Temp. mínimas Temp. medias Precipitaciones Rachas de viento máximas Velocidades máximas media en intervalos de 10 minutos

Datos horarios

Fecha y hora oficial Temperatura (ºC) Velocidad del viento (km/h) Dirección del viento Racha (km/h) Dirección de racha Precipitación (mm) Presión (hPa) Tendencia (hPa) Humedad (%)
2019-11-12 23:00:00 9 18 Oeste 32 Oeste 0 924.5 0.2 60
2019-11-12 22:00:00 9 13 Oeste 31 Oeste 0 924.7 0.8 59
2019-11-12 21:00:00 9.1 17 Oeste 31 Oeste 0 924.2 0.5 58
2019-11-12 20:00:00 9.1 11 Oeste 23 Oeste 0 924.3 0.7 59
2019-11-12 19:00:00 9 2 Sur 25 Oeste 0 923.9 0.4 60
2019-11-12 18:00:00 10.9 14 Oeste 36 Noroeste 0 923.7 -0.2 51
2019-11-12 17:00:00 12.4 22 Oeste 39 Oeste 0 923.6 -0.7 46
2019-11-12 16:00:00 12.7 22 Oeste 35 Oeste 0 923.5 -0.9 45
2019-11-12 15:00:00 12.8 25 Oeste 47 Oeste 0 923.9 -1.2 41
2019-11-12 14:00:00 12.9 28 Oeste 46 Oeste 0 924.3 -1 40
2019-11-12 13:00:00 12.4 24 Oeste 40 Oeste 0 924.4 -0.5 45
2019-11-12 12:00:00 11.1 27 Oeste 43 Oeste 0 925.1 0.1 50
2019-11-12 11:00:00 9.7 23 Oeste 41 Noroeste 0 925.3 0.9 63
2019-11-12 10:00:00 8.4 16 Oeste 32 Oeste 0 924.9 0.3 75
2019-11-12 09:00:00 7.4 16 Oeste 31 Oeste 0 925 0.2 76
2019-11-12 08:00:00 7.2 14 Oeste 33 Oeste 0 924.4 0.2 78
2019-11-12 07:00:00 7.5 17 Oeste 32 Oeste 0 924.6 0 80
2019-11-12 06:00:00 7.6 15 Oeste 28 Oeste 0 924.8 -0.7 80
2019-11-12 05:00:00 7.4 11 Oeste 28 Oeste 0 924.2 -1.2 81
2019-11-12 04:00:00 7.3 15 Oeste 24 Oeste 0 924.6 -1 85
2019-11-12 03:00:00 8 14 Sur 35 Sur 0 925.5 -0.4 81
2019-11-12 02:00:00 7.8 12 Sudoeste 28 Sudoeste 0 925.4 -0.4 85
2019-11-12 01:00:00 8.1 15 Oeste 30 Oeste 0 925.6 -0.1 84
2019-11-12 00:00:00 8.1 17 Oeste 31 Oeste 0 925.9 0.8 86
2019-11-11 23:00:00 7.8 15 Oeste 29 Oeste 0 925.8 0.5 86
2019-11-11 22:00:00 7.6 19 Oeste 38 Oeste 0 925.7 0.3 84
2019-11-11 21:00:00 7.6 25 Oeste 36 Oeste 0 925.1 0.5 81
2019-11-11 20:00:00 8.2 19 Oeste 40 Oeste 0 925.3 0.8 75
2019-11-11 19:00:00 8.9 23 Oeste 43 Oeste 0 925.4 0.9 68
2019-11-11 18:00:00 8.9 29 Oeste 43 Noroeste 0 924.6 0.4 64
2019-11-11 17:00:00 9.6 17 Noroeste 33 Noroeste 0 924.5 0 59
2019-11-11 16:00:00 9.6 19 Noroeste 41 Noroeste 0 924.5 -1 59
2019-11-11 15:00:00 9.5 24 Noroeste 46 Oeste 0 924.2 -1.7 55
2019-11-11 14:00:00 9.7 16 Noroeste 49 Noroeste 0 924.5 -2.1 52
2019-11-11 13:00:00 9.5 26 Noroeste 48 Oeste 0 925.5 -1.5 50
2019-11-11 12:00:00 9 23 Noroeste 45 Noroeste 0 925.9 -1.2 51
2019-11-11 11:00:00 7.9 13 Noroeste 34 Oeste 0 926.6 -0.2 60
2019-11-11 10:00:00 6.9 19 Oeste 34 Oeste 0 927 0.1 65
2019-11-11 09:00:00 6 19 Oeste 37 Oeste 0 927.1 0.2 68
2019-11-11 08:00:00 5.7 27 Oeste 37 Oeste 0 926.8 -0.3 71
2019-11-11 07:00:00 4.9 14 Oeste 24 Oeste 0 926.9 -0.1 76
2019-11-11 06:00:00 5.1 17 Oeste 30 Oeste 0 926.9 -0.4 77
2019-11-11 05:00:00 5.4 15 Oeste 33 Oeste 0 927.1 0.1 75
2019-11-11 04:00:00 5.9 18 Oeste 29 Oeste 0 927 0.2 73
2019-11-11 03:00:00 5.9 15 Oeste 35 Oeste 0 927.3 0.1 72
2019-11-11 02:00:00 6.1 15 Oeste 40 Oeste 0 927 0.3 74
2019-11-11 01:00:00 5.9 23 Oeste 40 Oeste 0 926.8 0.2 77
2019-11-11 00:00:00 6.2 21 Oeste 49 Noroeste 0 927.2 0.6 75
2019-11-10 23:00:00 6.7 19 Noroeste 46 Noroeste 0 926.7 0.5 68
2019-11-10 22:00:00 6.6 16 Noroeste 33 Noroeste 0 926.6 0.3 70
2019-11-10 21:00:00 6.6 17 Noroeste 35 Norte 0 926.6 0.9 75
2019-11-10 20:00:00 7.7 22 Oeste 41 Oeste 0 926.2 0.7 60
2019-11-10 19:00:00 7.7 26 Oeste 52 Noroeste 0 926.3 0.8 57
2019-11-10 18:00:00 8.8 22 Oeste 54 Noroeste 0 925.7 0.1 43
2019-11-10 17:00:00 8.7 21 Oeste 52 Noroeste 0 925.5 -0.4 49
2019-11-10 16:00:00 9 28 Oeste 47 Oeste 0 925.5 -0.7 51
2019-11-10 15:00:00 9 23 Oeste 39 Noroeste 0 925.6 -0.9 58
2019-11-10 14:00:00 9.4 22 Oeste 43 Oeste 0 925.9 -1.2 51
2019-11-10 13:00:00 9.5 19 Noroeste 41 Oeste 0 926.2 -0.8 51
2019-11-10 12:00:00 9.2 21 Oeste 36 Oeste 0 926.5 0.1 60
2019-11-10 11:00:00 7.7 18 Oeste 35 Noroeste 0 927.1 1.8 74
2019-11-10 10:00:00 7.8 20 Norte 42 Oeste 0 927 2.2 60
2019-11-10 09:00:00 9 21 Oeste 41 Oeste 0 926.4 1.9 69
2019-11-10 08:00:00 9.4 23 Noroeste 37 Oeste 0 925.3 0.4 67
2019-11-10 07:00:00 9.7 21 Oeste 37 Oeste 0 924.8 -0.7 65
2019-11-10 06:00:00 9.6 22 Oeste 44 Oeste 0 924.5 -1.4 68
2019-11-10 05:00:00 9.5 27 Oeste 45 Oeste 0 924.9 -1 71
2019-11-10 04:00:00 8.2 21 Oeste 35 Noroeste 0 925.5 -1.2 79
2019-11-10 03:00:00 8.2 15 Oeste 39 Noroeste 0 925.9 -2 77
2019-11-10 02:00:00 9.3 15 Noroeste 43 Oeste 0 925.9 -2.4 66
2019-11-10 01:00:00 8.5 13 Noroeste 27 Noroeste 0 926.7 -2.1 64
2019-11-10 00:00:00 8.6 11 Norte 22 Noroeste 0 927.9 -1.3 58
2019-11-09 23:00:00 8.7 6 Noroeste 22 Noroeste 0 928.3 -1.7 54
2019-11-09 22:00:00 9 11 Norte 17 Noroeste 0 928.8 -0.4 51
2019-11-09 21:00:00 9.1 10 Norte 19 Oeste 0 929.2 0.3 49
2019-11-09 20:00:00 8.8 12 Oeste 33 Oeste 0 930 1.6 52
2019-11-09 19:00:00 9.4 15 Oeste 33 Oeste 0 929.2 0.5 53
2019-11-09 18:00:00 10.3 13 Noroeste 35 Noroeste 0 928.9 -0.1 51
2019-11-09 17:00:00 11.9 25 Noroeste 44 Noroeste 0 928.4 -1.3 44
2019-11-09 16:00:00 13.1 17 Noroeste 30 Oeste 0 928.7 -1.8 39
2019-11-09 15:00:00 14.2 14 Oeste 30 Noroeste 0 929 -2.3 35
2019-11-09 14:00:00 13.3 21 Noroeste 34 Noroeste 0 929.7 -2 34
2019-11-09 13:00:00 12.5 19 Noroeste 31 Noroeste 0 930.5 -1.5 35
2019-11-09 12:00:00 10.6 16 Noroeste 29 Noroeste 0 931.3 -0.8 43
2019-11-09 11:00:00 8.8 17 Noroeste 26 Noroeste 0 931.7 0.7 50
2019-11-09 10:00:00 6.7 10 Oeste 17 Oeste 0 932 1.1 61
2019-11-09 09:00:00 3.7 6 Noroeste 16 Oeste 0 932.1 1.6 71
2019-11-09 08:00:00 2.8 9 Oeste 13 Oeste 0 931 0.8 72
2019-11-09 07:00:00 3 8 Oeste 13 Oeste 0 930.9 0 72
2019-11-09 06:00:00 3.4 8 Oeste 13 Oeste 0 930.5 -0.5 72
2019-11-09 05:00:00 3.7 4 Oeste 10 Oeste 0 930.2 -0.9 70
2019-11-09 04:00:00 3.8 5 Noroeste 10 Noroeste 0 930.9 -0.5 71
2019-11-09 03:00:00 4.4 2 Noroeste 21 Oeste 0 931 -0.2 67
2019-11-09 02:00:00 6.2 9 Oeste 22 Sudoeste 0 931.1 0.1 60
2019-11-09 01:00:00 6.4 4 Oeste 26 Sudoeste 0 931.4 1.1 59
2019-11-09 00:00:00 6.4 11 Oeste 23 Oeste 0 931.2 1.7 60
2019-11-08 23:00:00 6.8 12 Oeste 24 Oeste 0 931 1.6 57
2019-11-08 22:00:00 6.8 15 Oeste 28 Oeste 0 930.3 1.6 58
2019-11-08 21:00:00 6.5 14 Oeste 27 Oeste 0 929.5 1.4 57
2019-11-08 20:00:00 6.9 17 Oeste 33 Noroeste 0 929.4 2.1 59
2019-11-08 19:00:00 7.6 14 Oeste 24 Noroeste 0 928.7 1.9 56
2019-11-08 18:00:00 9.2 13 Noroeste 28 Noroeste 0 928.1 1.6 47
2019-11-08 17:00:00 10.5 18 Noroeste 32 Noroeste 0 927.3 1.1 43
2019-11-08 16:00:00 10.4 23 Noroeste 41 Oeste 0 926.8 0.3 43
2019-11-08 15:00:00 10.4 28 Noroeste 44 Noroeste 0 926.5 -0.3 44
2019-11-08 14:00:00 10.2 22 Oeste 47 Oeste 0 926.2 -0.3 44
2019-11-08 13:00:00 9.1 24 Noroeste 44 Oeste 0 926.5 0.3 50
2019-11-08 12:00:00 8.7 27 Noroeste 46 Noroeste 0 926.8 1.6 45
2019-11-08 11:00:00 7.9 22 Noroeste 35 Noroeste 0 926.5 2 62
2019-11-08 10:00:00 6.6 16 Noroeste 36 Oeste 0 926.2 2 74
2019-11-08 09:00:00 6.9 27 Oeste 42 Oeste 0 925.2 1.4 68
2019-11-08 08:00:00 6.3 14 Oeste 24 Oeste 0 924.5 1.2 70
2019-11-08 07:00:00 6.2 16 Oeste 29 Oeste 0 924.2 1.1 71
2019-11-08 06:00:00 5.9 15 Noroeste 39 Oeste 0 923.8 0.8 70
2019-11-08 05:00:00 6.4 24 Oeste 46 Oeste 0 923.3 0 66
2019-11-08 04:00:00 6.8 27 Oeste 43 Oeste 0 923.1 -0.9 64
2019-11-08 03:00:00 7.3 21 Oeste 39 Oeste 0 923 -1.2 63
2019-11-08 02:00:00 7.9 25 Oeste 45 Oeste 0 923.3 -0.7 61
2019-11-08 01:00:00 8 21 Oeste 35 Oeste 0 924 0.4 65
2019-11-08 00:00:00 8.7 20 Oeste 38 Oeste 0 924.2 0.8 57
2019-11-07 23:00:00 7.8 14 Noroeste 25 Oeste 0 924 0.8 67
2019-11-07 22:00:00 8.5 14 Oeste 29 Oeste 0 923.6 0.9 64
2019-11-07 21:00:00 9.5 17 Oeste 33 Oeste 0 923.4 0.7 58
2019-11-07 20:00:00 10.4 15 Oeste 32 Oeste 0 923.2 0.9 54
2019-11-07 19:00:00 10.8 17 Oeste 30 Oeste 0 922.7 1 70
2019-11-07 18:00:00 11.7 18 Oeste 32 Oeste 0 922.7 0.7 74
2019-11-07 17:00:00 12.6 21 Oeste 37 Oeste 0 922.3 0 73
2019-11-07 16:00:00 15.4 28 Oeste 46 Oeste 0 921.7 -1.3 62
2019-11-07 15:00:00 15.5 30 Oeste 48 Oeste 0 922 -1.4 61
2019-11-07 14:00:00 15.8 22 Oeste 40 Oeste 0 922.3 -1.4 63
2019-11-07 13:00:00 14 23 Oeste 42 Oeste 0 923 -1.1 78
2019-11-07 12:00:00 14 12 Noroeste 25 Noroeste 0 923.4 -0.6 62
2019-11-07 11:00:00 12.4 14 Noroeste 26 Oeste 0 923.7 -0.1 64
2019-11-07 10:00:00 11.3 12 Oeste 22 Oeste 0 924.1 0.1 69
2019-11-07 09:00:00 8.2 9 Noroeste 20 Noroeste 0 924 -0.5 73
2019-11-07 08:00:00 7.7 12 Noroeste 21 Noroeste 0 923.8 -0.6 73
2019-11-07 07:00:00 7.1 6 Noroeste 18 Oeste 0 924 -0.6 72
2019-11-07 06:00:00 7.1 5 Noroeste 18 Noroeste 0 924.5 -0.5 71
2019-11-07 05:00:00 8 12 Noroeste 23 Oeste 0 924.4 -1 66
2019-11-07 04:00:00 7.2 10 Noroeste 22 Oeste 0 924.6 -1.2 70
2019-11-07 03:00:00 7.7 10 Noroeste 17 Oeste 0 925 -1 68
2019-11-07 02:00:00 8.5 9 Oeste 18 Oeste 0 925.4 -1.1 64
2019-11-07 01:00:00 8.2 12 Oeste 18 Noroeste 0 925.8 -0.5 66
2019-11-07 00:00:00 8.1 10 Noroeste 15 Oeste 0 926 -0.4 66
2019-11-06 23:00:00 8.5 10 Noroeste 22 Oeste 0 926.5 0.1 64
2019-11-06 22:00:00 8.8 14 Oeste 28 Oeste 0 926.3 0.8 63
2019-11-06 21:00:00 9 18 Oeste 25 Oeste 0 926.4 1.4 63
2019-11-06 20:00:00 9.2 13 Oeste 23 Oeste 0 926.4 1.5 65
2019-11-06 19:00:00 9.7 17 Oeste 31 Oeste 0 925.5 0.6 63
2019-11-06 18:00:00 10.9 21 Oeste 36 Oeste 0 925 0.2 62
2019-11-06 17:00:00 12.9 19 Noroeste 32 Noroeste 0 924.9 -0.6 57
2019-11-06 16:00:00 13.2 19 Noroeste 33 Oeste 0 924.9 -1.2 56
2019-11-06 15:00:00 13.2 20 Noroeste 31 Oeste 0 924.8 -2 55
2019-11-06 14:00:00 13.5 15 Noroeste 32 Noroeste 0 925.5 -1.5 55
2019-11-06 13:00:00 13 16 Noroeste 33 Noroeste 0 926.1 -1 56
2019-11-06 12:00:00 12.1 19 Noroeste 33 Noroeste 0 926.8 0 59
2019-11-06 11:00:00 11 14 Noroeste 27 Noroeste 0 927 0.5 64
2019-11-06 10:00:00 9.7 19 Noroeste 28 Noroeste 0 927.1 0.8 70
2019-11-06 09:00:00 8.5 15 Oeste 19 Oeste 0 926.8 0.9 75
2019-11-06 08:00:00 7.2 6 Sur 22 Oeste 0 926.5 0.6 82
2019-11-06 07:00:00 8.2 8 Oeste 27 Oeste 0 926.3 0.2 79
2019-11-06 06:00:00 9.2 17 Oeste 28 Noroeste 0 925.9 -0.4 76
2019-11-06 05:00:00 9.9 14 Oeste 21 Oeste 0 925.9 -0.3 70
2019-11-06 04:00:00 10.2 15 Oeste 33 Oeste 0 926.1 -0.4 69
2019-11-06 03:00:00 10.6 18 Oeste 30 Oeste 0 926.3 -0.2 68
2019-11-06 02:00:00 10.3 16 Oeste 24 Oeste 0 926.2 -0.4 69
2019-11-06 01:00:00 10.4 15 Oeste 28 Oeste 0 926.5 0.5 67
2019-11-06 00:00:00 10.8 17 Oeste 29 Sudoeste 0 926.5 1.1 67
2019-11-05 23:00:00 10.9 16 Oeste 28 Oeste 0 926.6 1.2 66
2019-11-05 22:00:00 11.2 17 Oeste 29 Oeste 0 926 1.3 64
2019-11-05 21:00:00 11.1 15 Oeste 32 Oeste 0 925.4 1.2 65
2019-11-05 20:00:00 11.3 17 Oeste 31 Oeste 0 925.4 1.2 62
2019-11-05 19:00:00 11.5 16 Oeste 40 Oeste 0 924.7 0.5 60
2019-11-05 18:00:00 11.8 17 Oeste 37 Oeste 0 924.2 0.2 59
2019-11-05 17:00:00 12.1 14 Oeste 32 Noroeste 0 924.2 0.2 55
2019-11-05 16:00:00 12.1 20 Noroeste 34 Noroeste 0 924.2 -0.2 54
2019-11-05 15:00:00 12.3 19 Oeste 35 Noroeste 0 924 -1.1 56
2019-11-05 14:00:00 12.9 20 Noroeste 39 Noroeste 0 924 -0.9 55
2019-11-05 13:00:00 12 23 Noroeste 36 Noroeste 0 924.4 -0.1 64
2019-11-05 12:00:00 11 17 Noroeste 40 Oeste 0 925.1 1.1 67
2019-11-05 11:00:00 10.8 28 Oeste 46 Oeste 0 924.9 1.9 63
2019-11-05 10:00:00 9.8 21 Noroeste 42 Oeste 0 924.5 2.2 69
2019-11-05 09:00:00 8.7 15 Oeste 41 Oeste 0 924 2.7 79
2019-11-05 08:00:00 8.9 21 Oeste 49 Noroeste 0 923 2.3 76
2019-11-05 07:00:00 8.9 29 Oeste 57 Oeste 0 922.3 2.4 86
2019-11-05 06:00:00 10.2 21 Oeste 47 Noroeste 0 921.3 1.1 84
2019-11-05 05:00:00 9.9 37 Oeste 59 Oeste 0 920.7 -0.4 93
2019-11-05 04:00:00 13.1 31 Oeste 48 Oeste 0 919.9 -1.7 74
2019-11-05 03:00:00 13.6 28 Oeste 53 Oeste 0 920.2 -1.8 63
2019-11-05 02:00:00 13.5 22 Oeste 44 Oeste 0 921.1 -1.4 65
2019-11-05 01:00:00 13.7 24 Oeste 48 Oeste 0 921.6 -1.5 61
2019-11-05 00:00:00 13.6 19 Oeste 49 Oeste 0 922 -1.5 60
2019-11-04 23:00:00 13.8 27 Oeste 45 Oeste 0 922.5 -1.3 62
2019-11-04 22:00:00 14.1 22 Oeste 41 Oeste 0 923.1 -0.3 57
2019-11-04 21:00:00 14.1 17 Sudoeste 35 Oeste 0 923.5 0.8 59
2019-11-04 20:00:00 14.6 19 Oeste 40 Oeste 0 923.8 1 59
2019-11-04 19:00:00 15 23 Oeste 44 Oeste 0 923.4 0 61
2019-11-04 18:00:00 15.9 23 Oeste 45 Oeste 0 922.7 -0.7 55
2019-11-04 17:00:00 17.1 31 Oeste 54 Oeste 0 922.8 -1.1 51
2019-11-04 16:00:00 17.8 34 Oeste 57 Oeste 0 923.4 -1.6 49
2019-11-04 15:00:00 19 32 Oeste 56 Oeste 0 923.4 -2.4 49
2019-11-04 14:00:00 18.9 33 Oeste 50 Oeste 0 923.9 -2.1 50
2019-11-04 13:00:00 18.6 21 Oeste 38 Oeste 0 925 -1.6 52
2019-11-04 12:00:00 16.4 22 Oeste 42 Sudoeste 0 925.8 -0.1 57
2019-11-04 11:00:00 15.7 21 Oeste 40 Oeste 0 926 0.6 61
2019-11-04 10:00:00 14.3 18 Oeste 40 Oeste 0 926.6 1.3 74
2019-11-04 09:00:00 14.5 17 Oeste -- -- -- 925.9 0.4 73
2019-11-04 08:00:00 14.3 13 Oeste 27 Oeste 0 925.4 -0.3 75
2019-11-04 07:00:00 13.4 4 Sudeste 23 Oeste 0 925.3 -1.1 81
2019-11-04 06:00:00 13.2 12 Noroeste 21 Oeste 0 925.5 -1 81
2019-11-04 05:00:00 13.9 6 Oeste 26 Noroeste 0 925.7 -1.1 76
2019-11-04 04:00:00 14.1 14 Noroeste 23 Noroeste 0 926.4 -0.7 75
2019-11-04 03:00:00 14.2 13 Noroeste 21 Noroeste 0 926.5 -0.3 71
2019-11-04 02:00:00 13.8 11 Noroeste 23 Noroeste 0 926.8 0.4 68
2019-11-04 01:00:00 13.7 15 Noroeste 33 Oeste 0 927.1 1.1 67
2019-11-04 00:00:00 13.2 25 Oeste 37 Noroeste 0 926.8 1.3 67
2019-11-03 23:00:00 13.6 27 Oeste 48 Oeste 0 926.4 1.7 65
2019-11-03 22:00:00 14.4 21 Noroeste 35 Noroeste 0 926 2.6 61
2019-11-03 21:00:00 15 8 Norte 24 Noroeste 0 925.5 2.9 60
2019-11-03 20:00:00 15.8 10 Oeste 33 Oeste 0 924.7 3 63
2019-11-03 19:00:00 16 14 Oeste 40 Oeste 0 923.4 2.2 61
2019-11-03 18:00:00 16.7 21 Oeste 59 Oeste 0 922.6 2 57
2019-11-03 17:00:00 18.5 32 Oeste 49 Noroeste 0 921.7 1.6 49
2019-11-03 16:00:00 17.5 30 Oeste 63 Oeste 0 921.2 1.1 52
2019-11-03 15:00:00 17.3 37 Oeste 69 Oeste 0 920.6 0.6 54
2019-11-03 14:00:00 17.1 31 Oeste 64 Sudoeste 0 920.1 -0.4 60
2019-11-03 13:00:00 16.2 37 Oeste 67 Oeste 0 920.1 0 64
2019-11-03 12:00:00 14.9 37 Oeste 67 Oeste 0 920 0.3 69
2019-11-03 11:00:00 14.2 35 Oeste 64 Oeste 0 920.5 2 69
2019-11-03 10:00:00 14.6 37 Oeste 65 Oeste 0 920.1 1.1 62
2019-11-03 09:00:00 14.3 39 Oeste 71 Oeste 0 919.7 0.7 60
2019-11-03 08:00:00 14.1 39 Oeste 68 Oeste 0 918.5 -0.8 66
2019-11-03 07:00:00 14.4 28 Oeste 57 Oeste 0 919 -0.6 64
2019-11-03 06:00:00 14.6 23 Oeste 55 Oeste 0 919 -0.6 66
2019-11-03 05:00:00 14.6 21 Oeste 44 Oeste 0 919.3 -1 71
2019-11-03 04:00:00 14.8 22 Oeste 41 Oeste 0 919.6 -1.5 68
2019-11-03 03:00:00 15.1 23 Oeste 52 Oeste 0 919.6 -2.1 70
2019-11-03 02:00:00 15.5 20 Sudoeste 37 Sudoeste 0 920.3 -1.6 67
2019-11-03 01:00:00 15.6 14 Sudoeste 34 Sudoeste 0 921.1 -0.8 65
2019-11-03 00:00:00 15.9 17 Sudoeste 39 Sudoeste 0 921.7 -0.9 64
2019-11-02 23:00:00 16.2 18 Sudoeste 36 Sudoeste 0 921.9 -0.6 62
2019-11-02 22:00:00 16.3 18 Sudoeste 35 Oeste 0 921.9 -0.5 58
2019-11-02 21:00:00 15.9 18 Oeste 41 Oeste 0 922.6 0 60
2019-11-02 20:00:00 16.1 16 Oeste 33 Oeste 0 922.5 -0.3 61
2019-11-02 19:00:00 16.4 16 Sudoeste 37 Oeste 0 922.4 -0.9 61
2019-11-02 18:00:00 17.7 24 Oeste 43 Oeste 0 922.6 -0.9 53
2019-11-02 17:00:00 18.8 25 Oeste 47 Oeste 0 922.8 -1.4 52
2019-11-02 16:00:00 19.2 25 Oeste 41 Oeste 0 923.3 -1.4 54
2019-11-02 15:00:00 18.3 19 Oeste 36 Oeste 0 923.5 -2 57
2019-11-02 14:00:00 17.1 16 Noroeste 39 Oeste 0 924.2 -1.7 65
2019-11-02 13:00:00 20.3 22 Oeste 45 Sudoeste 0 924.7 -1.6 51
2019-11-02 12:00:00 18.9 26 Oeste 42 Oeste 0 925.5 -0.5 58
2019-11-02 11:00:00 18.1 21 Oeste 42 Oeste 0 925.9 0 66
2019-11-02 10:00:00 16.7 19 Oeste 35 Oeste 0 926.3 -0.3 72
2019-11-02 09:00:00 15.1 6 Norte 19 Oeste 0 926 -1 86
2019-11-02 08:00:00 15 12 Oeste 30 Oeste 0.4 925.9 -1.5 85
2019-11-02 07:00:00 14.9 9 Oeste 37 Sudoeste 0.8 926.6 -1.1 88
2019-11-02 06:00:00 15.6 13 Oeste 26 Oeste 0 927 -1.3 80
2019-11-02 05:00:00 15.8 17 Oeste 34 Oeste 0 927.4 -1.5 78
2019-11-02 04:00:00 16 10 Oeste 29 Oeste 0 927.7 -1.7 73
2019-11-02 03:00:00 17.1 20 Oeste 32 Oeste 0 928.3 -2 68
2019-11-02 02:00:00 17 13 Oeste 28 Oeste 0 928.9 -1.5 68
2019-11-02 01:00:00 17.8 18 Oeste 35 Oeste 0 929.4 -1 65
2019-11-02 00:00:00 18 17 Oeste 32 Oeste 0 930.3 -0.1 66
2019-11-01 23:00:00 17.8 14 Oeste 23 Oeste 0 930.4 -0.2 69
2019-11-01 22:00:00 18.1 12 Noroeste 35 Oeste 0 930.4 -0.2 69
2019-11-01 21:00:00 18.8 20 Oeste 34 Oeste 0 930.4 -0.3 65
2019-11-01 20:00:00 18.4 18 Oeste 27 Oeste 0 930.6 -0.3 68
2019-11-01 19:00:00 18.5 12 Oeste 20 Oeste 0 930.6 -0.4 69
2019-11-01 18:00:00 18.9 11 Oeste 31 Oeste 0 930.7 -0.6 65
2019-11-01 17:00:00 19.5 15 Noroeste 35 Noroeste 0 930.9 -0.7 62
2019-11-01 16:00:00 20.6 25 Noroeste 40 Oeste 0 931 -1.4 57
2019-11-01 15:00:00 21.3 20 Noroeste 36 Noroeste 0 931.3 -1.7 57
2019-11-01 14:00:00 21.6 23 Oeste 37 Noroeste 0 931.6 -2.2 57
2019-11-01 13:00:00 20.8 19 Noroeste 35 Noroeste 0 932.4 -0.9 60
2019-11-01 12:00:00 19.8 25 Oeste 37 Oeste 0 933 -0.3 66
2019-11-01 11:00:00 18.2 21 Oeste 37 Oeste 0 933.8 0.8 74
2019-11-01 10:00:00 18.8 23 Oeste 40 Oeste 0 933.3 0.6 68
2019-11-01 09:00:00 17 14 Sudoeste 31 Oeste 0 933.3 0.2 78
2019-11-01 08:00:00 16.4 17 Oeste 31 Oeste 0 933 -0.3 81
2019-11-01 07:00:00 16.2 21 Oeste 31 Oeste 0 932.7 -0.7 81
2019-11-01 06:00:00 15.7 10 Noroeste 21 Noroeste 0 933.1 -0.7 79
2019-11-01 05:00:00 16.3 12 Noroeste 22 Oeste 0 933.3 -0.7 75
2019-11-01 04:00:00 16.7 12 Oeste 20 Oeste 0 933.4 -1 71
2019-11-01 03:00:00 16.9 9 Oeste 16 Oeste 0 933.8 -0.9 68
2019-11-01 02:00:00 16.8 9 Noroeste 16 Noroeste 0 934 -0.8 66
2019-11-01 01:00:00 15.5 4 Noroeste 8 Nordeste 0 934.4 -0.2 72
2019-11-01 00:00:00 16.2 6 Noroeste 18 Oeste 0 934.7 0.1 69
2019-10-31 23:00:00 17.1 14 Oeste 22 Oeste 0 934.8 0.5 67
2019-10-31 22:00:00 17.4 17 Oeste 24 Oeste 0 934.6 0.6 65
2019-10-31 21:00:00 17.1 16 Oeste 24 Oeste 0 934.6 0.9 66
2019-10-31 20:00:00 17 5 Sudoeste 13 Oeste 0 934.3 0.8 67
2019-10-31 19:00:00 18.1 8 Oeste 17 Oeste 0 934 0.5 61
2019-10-31 18:00:00 19 10 Oeste 37 Oeste 0 933.7 -0.1 57
2019-10-31 17:00:00 20.2 23 Oeste 36 Noroeste 0 933.5 -0.5 52
2019-10-31 16:00:00 20.9 17 Noroeste 35 Oeste 0 933.5 -1 49
2019-10-31 15:00:00 21 25 Oeste 40 Oeste 0 933.8 -1.3 48
2019-10-31 14:00:00 20.7 18 Oeste 34 Noroeste 0 934 -1.2 54
2019-10-31 13:00:00 19.4 14 Noroeste 24 Noroeste 0 934.5 -0.5 62
2019-10-31 12:00:00 19.1 14 Oeste 24 Oeste 0 935.1 0.9 62
2019-10-31 11:00:00 17.3 17 Oeste 26 Oeste 0 935.2 1.4 66
2019-10-31 10:00:00 17 16 Oeste 27 Noroeste 0 935 1.4 65
2019-10-31 09:00:00 16.3 15 Oeste 26 Oeste 0 934.2 0.6 68
2019-10-31 08:00:00 15.1 8 Noroeste 20 Nordeste 0 933.8 0.4 70
2019-10-31 07:00:00 15.1 6 Oeste 11 Oeste 0 933.6 -0.3 70
2019-10-31 06:00:00 14.9 4 Noroeste 14 Norte 0 933.6 -0.4 68
2019-10-31 05:00:00 14.9 8 Noroeste 12 Noroeste 0 933.4 -0.7 66
2019-10-31 04:00:00 15.1 3 Norte 12 Noroeste 0 933.9 -0.3 64
2019-10-31 03:00:00 15.2 9 Noroeste 16 Noroeste 0 934 -0.3 63
2019-10-31 02:00:00 15.4 9 Oeste 13 Oeste 0 934.1 -0.5 62
2019-10-31 01:00:00 15.2 7 Noroeste 12 Oeste 0 934.2 0.1 60
2019-10-31 00:00:00 15.9 5 Oeste 12 Oeste 0 934.3 0.4 58
2019-10-30 23:00:00 16 10 Oeste 19 Oeste 0 934.6 1.2 59
2019-10-30 22:00:00 16.2 8 Oeste 14 Oeste 0 934.1 1.2 58
2019-10-30 21:00:00 16.4 5 Sudoeste 18 Oeste 0 933.9 1.6 56
2019-10-30 20:00:00 17.1 12 Oeste 24 Oeste 0 933.4 1.5 53
2019-10-30 19:00:00 17.2 5 Noroeste 19 Oeste 0 932.9 1 56
2019-10-30 18:00:00 19.5 8 Oeste 27 Oeste 0 932.3 0.2 50
2019-10-30 17:00:00 20.7 19 Oeste 27 Oeste 0 931.9 -0.5 45
2019-10-30 16:00:00 21.8 15 Oeste 26 Oeste 0 931.9 -0.9 44
2019-10-30 15:00:00 21.2 14 Oeste 26 Oeste 0 932.1 -1.4 48
2019-10-30 14:00:00 20.2 15 Oeste 30 Oeste 0 932.4 -1.4 53
2019-10-30 13:00:00 19.4 17 Oeste 26 Oeste 0 932.8 -0.9 57
2019-10-30 12:00:00 15.5 5 Norte 11 Norte 0 933.5 0.3 72
2019-10-30 11:00:00 12.1 3 Noroeste 6 Oeste 0 933.8 1.2 86
2019-10-30 10:00:00 9.8 3 Oeste 5 Oeste 0 933.7 1.6 96
2019-10-30 09:00:00 7.6 3 Sudeste 9 Sur 0 933.2 1.4 97
2019-10-30 08:00:00 6.3 2 Sur 6 Oeste 0 932.6 1 95
2019-10-30 07:00:00 6.5 3 Sur 6 Sudeste 0 932.1 0.3 95
2019-10-30 06:00:00 7.4 2 Oeste 4 Noroeste 0 931.8 -0.2 95
2019-10-30 05:00:00 7.2 3 Sudoeste 4 Noroeste 0 931.6 -0.2 94
2019-10-30 04:00:00 7.4 3 Sur 10 Sur 0 931.8 -0.1 91
2019-10-30 03:00:00 7.7 6 Sur 9 Sur 0 932 0.5 90
2019-10-30 02:00:00 8.3 5 Sudeste 8 Sur 0 931.8 0.5 88
2019-10-30 01:00:00 9.6 3 Este 8 Sur 0 931.9 1 86
2019-10-30 00:00:00 10.4 6 Sudeste 11 Nordeste 0 931.5 1 82
2019-10-29 23:00:00 12.5 5 Este 15 Oeste 0 931.3 1.4 74
2019-10-29 22:00:00 14.9 7 Oeste 15 Oeste 0 930.9 1.3 68
2019-10-29 21:00:00 14.7 6 Sudoeste 16 Sudoeste 0 930.5 1.6 69
2019-10-29 20:00:00 13.9 4 Sudoeste 9 Sudoeste 0 929.9 1.1 72
2019-10-29 19:00:00 16.1 3 Norte 17 Oeste 0 929.6 1.2 63
2019-10-29 18:00:00 18.9 12 Oeste 27 Oeste 0 928.9 0.4 52
2019-10-29 17:00:00 20.1 17 Oeste 31 Oeste 0 928.8 -0.1 49
2019-10-29 16:00:00 20.3 19 Noroeste 31 Noroeste 0 928.4 -1.1 46
2019-10-29 15:00:00 20.5 15 Oeste 25 Oeste 0 928.5 -1.7 47
2019-10-29 14:00:00 19.6 15 Noroeste 29 Oeste 0 928.9 -1.4 55
2019-10-29 13:00:00 18.2 15 Oeste 26 Noroeste 0 929.5 -0.4 59
2019-10-29 12:00:00 15.7 7 Noroeste 15 Norte 0 930.2 0.9 73
2019-10-29 11:00:00 11.9 6 Norte 10 Norte 0 930.3 1.7 82
2019-10-29 10:00:00 10.1 4 Norte 7 Norte 0 929.9 1.6 89
2019-10-29 09:00:00 7.9 3 Sudeste 9 Sudeste 0 929.3 1 96
2019-10-29 08:00:00 6 2 Sudoeste 7 Sur 0 928.6 0.5 95
2019-10-29 07:00:00 6.1 7 Sur 9 Sur 0 928.3 0.2 93
2019-10-29 06:00:00 6.8 5 Sudeste 9 Sudeste 0 928.3 -0.1 89
2019-10-29 05:00:00 7.9 0 Calma 8 Sur 0 928.1 -0.5 89
2019-10-29 04:00:00 8.4 3 Oeste 9 Sudeste 0 928.1 -0.6 87
2019-10-29 03:00:00 9.7 6 Oeste 11 Sudoeste 0 928.4 -0.5 86
2019-10-29 02:00:00 10 0 Calma 7 Sur 0 928.6 -0.2 83
2019-10-29 01:00:00 10.7 6 Sur 10 Sudeste 0 928.7 -0.1 79
2019-10-29 00:00:00 11 7 Sur 14 Sudeste 0 928.9 0.4 78
2019-10-28 23:00:00 13.1 7 Sudeste 12 Sudoeste 0 928.8 0.4 66
2019-10-28 22:00:00 15.6 9 Sudoeste 22 Sudoeste 0 928.8 0.7 59
2019-10-28 21:00:00 16.3 8 Sudoeste 25 Oeste 0 928.5 0.8 52
2019-10-28 20:00:00 16.9 11 Oeste 16 Oeste 0 928.4 0.7 50
2019-10-28 19:00:00 17.5 2 Sudoeste 14 Oeste 0 928.1 -0.1 52
2019-10-28 18:00:00 20.2 8 Oeste 16 Oeste 0 927.7 -0.8 42
2019-10-28 17:00:00 22.3 6 Norte 13 Noroeste 0 927.7 -1.4 38
2019-10-28 16:00:00 21.5 7 Norte 14 Noroeste 0 928.2 -1.7 43
2019-10-28 15:00:00 19.4 6 Norte 13 Norte 0 928.5 -2.1 56
2019-10-28 14:00:00 17 4 Norte 8 Norte 0 929.1 -1.5 66
2019-10-28 13:00:00 14.4 2 Nordeste 10 Noroeste 0 929.9 -0.6 82
2019-10-28 12:00:00 12.1 3 Oeste 11 Nordeste 0 930.6 0.4 96
2019-10-28 11:00:00 10.7 9 Norte 12 Norte 0 930.6 0.7 98
2019-10-28 10:00:00 9.2 3 Sudoeste 8 Sur 0 930.5 1 99
2019-10-28 09:00:00 8 4 Sudeste 8 Sudeste 0 930.2 0.3 99
2019-10-28 08:00:00 7.9 3 Este 8 Noroeste 0 929.9 0 98
2019-10-28 07:00:00 7.6 3 Sur 6 Sur 0 929.5 -0.5 98
2019-10-28 06:00:00 7.8 0 Calma 6 Sudoeste 0 929.9 -0.5 98
2019-10-28 05:00:00 7.1 4 Sudoeste 8 Este 0 929.9 -0.8 97
2019-10-28 04:00:00 6.2 5 Sudeste 8 Sur 0 930 -1 94
2019-10-28 03:00:00 6.9 7 Sudeste 10 Sur 0 930.4 -0.7 95
2019-10-28 02:00:00 7.8 9 Sur 11 Sur 0 930.7 -0.7 95
2019-10-28 01:00:00 8.4 7 Sur 9 Sudeste 0 931 -0.4 93
2019-10-28 00:00:00 10.2 6 Sudeste 11 Sudeste 0 931.1 -0.3 94
2019-10-27 23:00:00 11.3 8 Sudeste 12 Sudeste 0 931.4 0.8 94
2019-10-27 22:00:00 12.5 3 Este 18 Sudeste 0 931.4 1.4 94
2019-10-27 21:00:00 13.6 9 Sudeste 27 Sudeste 0 931.4 -- 93
2019-10-27 20:00:00 14.5 13 Sudeste 27 Sudeste 0 930.6 1.1 86
2019-10-27 19:00:00 16.2 16 Sudeste 28 Sudeste 0 930 0.4 73
2019-10-27 18:00:00 -- -- -- -- -- -- -- -- --
2019-10-27 17:00:00 22.2 14 Sudeste 24 Sudeste 0 929.5 -0.8 45
2019-10-27 16:00:00 23.6 13 Sudeste 23 Sudeste 0 929.6 -1.6 39
2019-10-27 15:00:00 23.6 4 Noroeste 9 Norte 0 929.9 -2.1 29
2019-10-27 14:00:00 22.3 4 Norte 8 Nordeste 0 930.3 -2.2 35
2019-10-27 13:00:00 19.5 3 Norte 12 Norte 0 931.2 -1.2 45
2019-10-27 12:00:00 15.9 4 Nordeste 8 Norte 0 932 -0.1 57
2019-10-27 11:00:00 12.3 4 Oeste 9 Oeste 0 932.5 0.6 69
2019-10-27 10:00:00 8.4 2 Norte 6 Oeste 0 932.4 1 86
2019-10-27 09:00:00 5.4 0 Calma 7 Sudeste 0 932.1 0.8 96
2019-10-27 08:00:00 4.8 5 Noroeste 10 Oeste 0 931.9 0.5 95
2019-10-27 07:00:00 4.4 3 Este 9 Sudeste 0 931.4 0 94
2019-10-27 06:00:00 5.3 8 Sur 13 Sur 0 931.3 -0.2 95
2019-10-27 05:00:00 4.6 8 Sur 10 Sudeste 0 931.4 -0.4 92
2019-10-27 04:00:00 5 4 Sur 7 Sudeste 0 931.4 -0.7 90
2019-10-27 03:00:00 5.8 3 Oeste 5 Oeste 0 931.5 -0.6 86
2019-10-27 02:00:00 6.4 3 Sur 10 Sudeste 0 931.8 -0.2 83
2019-10-27 01:00:00 8.2 7 Sur 10 Sudeste 0 932.1 0.8 85
2019-10-27 00:00:00 10.1 6 Sudeste 8 Sudeste 0 932 0.8 69
2019-10-26 23:00:00 12.1 8 Sur 14 Sur 0 931.8 1.3 66
2019-10-26 22:00:00 14.1 9 Sudeste 18 Sur 0 931.3 1.6 70
2019-10-26 21:00:00 15.9 12 Sudeste 20 Sur 0 931.2 1.7 65
2019-10-26 20:00:00 17.6 11 Sur 20 Sudeste 0 930.5 0.9 57
2019-10-26 19:00:00 24.4 6 Sudoeste 14 Sudeste 0 929.7 -0.3 28
2019-10-26 18:00:00 25.3 8 Noroeste 18 Oeste 0 929.5 -1.2 23
2019-10-26 17:00:00 25 12 Oeste 18 Oeste 0 929.6 -2 22
2019-10-26 16:00:00 24.2 4 Norte 12 Norte 0 930 -2.3 23
2019-10-26 15:00:00 21.9 3 Norte 10 Norte 0 930.7 -1.9 28
2019-10-26 14:00:00 19.3 4 Noroeste 9 Norte 0 931.6 -1 46
2019-10-26 13:00:00 14.9 2 Sudoeste 8 Norte 0 932.3 -0.3 64
2019-10-26 12:00:00 11.4 4 Norte 9 Norte 0 932.6 0.6 78
2019-10-26 11:00:00 8.2 3 Noroeste 6 Noroeste 0 932.6 0.8 95
2019-10-26 10:00:00 4.6 0 Calma 5 Oeste 0 932.6 0.8 97
2019-10-26 09:00:00 2.8 5 Sur 8 Sudeste 0 932 0.2 95
2019-10-26 08:00:00 3.3 3 Sur 6 Sur 0 931.8 -0.2 95
2019-10-26 07:00:00 3.7 6 Sur 10 Sudeste 0 931.8 -0.5 95
2019-10-26 06:00:00 4 6 Sur 9 Sudeste 0 931.8 -0.6 94
2019-10-26 05:00:00 4.7 6 Sur 7 Sur 0 932 -0.7 92
2019-10-26 04:00:00 5.5 4 Sur 9 Sudeste 0 932.3 -0.5 91
2019-10-26 03:00:00 6.4 5 Sudeste 8 Sudeste 0 932.4 -0.4 89
2019-10-26 02:00:00 7.2 6 Sur 9 Sudeste 0 932.7 0.2 90
2019-10-26 01:00:00 8.6 4 Sudeste 6 Sudoeste 0 932.8 0.5 83
2019-10-26 00:00:00 10.1 2 Oeste 13 Sudeste 0 932.8 0.7 81
2019-10-25 23:00:00 11.7 9 Sudeste 17 Sudeste 0 932.5 1 76
2019-10-25 22:00:00 13.1 11 Sudeste 19 Sudeste 0 932.3 1.1 71
2019-10-25 21:00:00 14.7 11 Sudeste 17 Sudeste 0 932.1 0.8 64
2019-10-25 20:00:00 18.6 6 Sudoeste 12 Sur 0 931.5 0 47
2019-10-25 19:00:00 22.8 2 Noroeste 9 Oeste 0 931.2 -0.6 33
2019-10-25 18:00:00 24.3 6 Oeste 10 Norte 0 931.3 -0.9 27
2019-10-25 17:00:00 22.8 4 Norte 12 Norte 0 931.5 -1.4 33
2019-10-25 16:00:00 21.3 4 Nordeste 10 Nordeste 0 931.8 -2 38
2019-10-25 15:00:00 20.1 4 Noroeste 10 Norte 0 932.2 -2.1 46
2019-10-25 14:00:00 17.4 3 Norte 9 Norte 0 932.9 -1.5 53
2019-10-25 13:00:00 13.2 3 Noroeste 9 Norte 0 933.8 -0.6 67
2019-10-25 12:00:00 9.8 5 Norte 9 Noroeste 0 934.3 0.3 84
2019-10-25 11:00:00 6.1 4 Oeste 8 Oeste 0 934.4 0.6 97
2019-10-25 10:00:00 3.9 3 Oeste 8 Oeste 0 934.4 0.6 98
2019-10-25 09:00:00 1.6 4 Sudeste 6 Sudeste 0 934 0.2 97
2019-10-25 08:00:00 2.3 0 Calma 8 Sur 0 933.8 0.1 97
2019-10-25 07:00:00 2.4 7 Sudeste 10 Sudeste 0 933.8 -0.3 96
2019-10-25 06:00:00 2.9 5 Sur 7 Sudeste 0 933.8 -0.3 96
2019-10-25 05:00:00 4 3 Oeste 6 Oeste 0 933.7 -0.8 96
2019-10-25 04:00:00 3.9 4 Sudeste 9 Sudeste 0 934.1 -0.1 94
2019-10-25 03:00:00 4.5 7 Sur 9 Sur 0 934.1 0 94
2019-10-25 02:00:00 4.9 7 Sur 8 Sudeste 0 934.5 0.8 90
2019-10-25 01:00:00 6.7 2 Sudoeste 8 Sudeste 0 934.2 1 84
2019-10-25 00:00:00 8.8 5 Oeste 11 Sur 0 934.1 1.8 79
2019-10-24 23:00:00 9.6 3 Sur 17 Sudoeste 0 933.7 1.9 75
2019-10-24 22:00:00 11.1 11 Sudoeste 22 Oeste 0 933.2 2.1 68
2019-10-24 21:00:00 11.5 14 Oeste 24 Oeste 0 932.3 1.8 66
2019-10-24 20:00:00 12.1 12 Oeste 30 Oeste 0 931.8 1.5 63
2019-10-24 19:00:00 14.3 15 Oeste 35 Oeste 0 931.1 1.2 58
2019-10-24 18:00:00 14.9 21 Oeste 41 Oeste 0 930.5 0.5 54
2019-10-24 17:00:00 15.1 20 Oeste 39 Oeste 0 930.3 0.4 55
2019-10-24 16:00:00 14.8 21 Oeste 36 Oeste 0 929.9 0.1 56
2019-10-24 15:00:00 14.5 18 Noroeste 36 Oeste 0 930 0.2 60
2019-10-24 14:00:00 13.5 19 Noroeste 33 Noroeste 0 929.9 0.6 66
2019-10-24 13:00:00 11.5 22 Noroeste 32 Oeste 0 929.8 1.5 77
2019-10-24 12:00:00 9.7 10 Noroeste 25 Noroeste 0 929.8 2.5 93
2019-10-24 11:00:00 8.9 12 Noroeste 30 Oeste 0 929.3 2.6 93
2019-10-24 10:00:00 9 19 Oeste 30 Oeste 0 928.3 2.5 86
2019-10-24 09:00:00 8.6 19 Oeste 29 Oeste 0 927.3 2.2 89
2019-10-24 08:00:00 8.6 17 Oeste 30 Oeste 0.2 926.7 1.6 94
2019-10-24 07:00:00 8.6 9 Noroeste 19 Oeste 0 925.8 1.3 95
2019-10-24 06:00:00 8.9 10 Noroeste 18 Noroeste 0 925.1 0.8 92
2019-10-24 05:00:00 9.1 10 Noroeste 27 Oeste 0 925.1 1.2 90
2019-10-24 04:00:00 9.3 15 Oeste 24 Oeste 0 924.5 0.9 86
2019-10-24 03:00:00 9.3 10 Noroeste 26 Oeste 0 924.3 1.1 85
2019-10-24 02:00:00 9.4 18 Oeste 34 Oeste 0 923.9 0.9 80
2019-10-24 01:00:00 8.7 11 Noroeste 20 Noroeste 0 923.6 1.4 90
2019-10-24 00:00:00 8.6 7 Norte 23 Oeste 0 923.2 1.1 93
2019-10-23 23:00:00 9.1 10 Oeste 20 Oeste 0.2 923 1.4 88
2019-10-23 22:00:00 8.2 6 Nordeste 13 Norte 0 922.2 0.6 92
2019-10-23 21:00:00 8.2 7 Norte 19 Sudoeste 0.4 922.1 1.1 88
2019-10-23 20:00:00 9.2 7 Oeste 28 Oeste 0.2 921.6 1.2 79
2019-10-23 19:00:00 9.3 10 Sudoeste 43 Sudoeste 0.4 921.6 1.4 76
2019-10-23 18:00:00 10.6 19 Oeste 39 Oeste 0 921 0.8 63
2019-10-23 17:00:00 12.1 18 Oeste 35 Sudoeste 0 920.4 0.3 60
2019-10-23 16:00:00 10.5 10 Oeste 34 Oeste 0 920.2 0.1 74
2019-10-23 15:00:00 12 17 Oeste 41 Oeste 0 920.2 -0.2 56
2019-10-23 14:00:00 13.7 26 Oeste 52 Oeste 0 920.1 -0.2 51
2019-10-23 13:00:00 12.4 31 Oeste 54 Oeste 0 920.1 0.5 53
2019-10-23 12:00:00 12.1 17 Oeste 33 Oeste 0 920.4 1 54
2019-10-23 11:00:00 11.2 20 Oeste 31 Oeste 0 920.3 1 58
2019-10-23 10:00:00 9.7 13 Oeste 28 Oeste 0 919.6 0.2 66
2019-10-23 09:00:00 7.3 6 Noroeste 18 Noroeste 0 919.4 0.4 79
2019-10-23 08:00:00 7.9 10 Oeste 21 Oeste 0 919.3 0.6 76
2019-10-23 07:00:00 8.1 12 Oeste 21 Oeste 0 919.4 0.4 78
2019-10-23 06:00:00 7.5 13 Oeste 26 Oeste 0 919 0.1 80
2019-10-23 05:00:00 7.7 14 Oeste 22 Oeste 0 918.7 -0.8 79
2019-10-23 04:00:00 7.4 9 Noroeste 25 Oeste 0 919 -0.8 84
2019-10-23 03:00:00 8 10 Oeste 20 Sudoeste 0 918.9 -0.8 79
2019-10-23 02:00:00 8.4 5 Noroeste 19 Oeste 0 919.5 -0.1 74
2019-10-23 01:00:00 8.9 14 Oeste 36 Oeste 0 919.8 0.4 77
2019-10-23 00:00:00 9.7 15 Sudoeste 27 Sudoeste 0 919.7 0.9 67
2019-10-22 23:00:00 9.3 10 Oeste 18 Oeste 0 919.6 1.2 72
2019-10-22 22:00:00 10 8 Oeste 19 Oeste 0 919.4 0.8 67
2019-10-22 21:00:00 10.8 15 Oeste 27 Oeste 0 918.8 0.3 64
2019-10-22 20:00:00 11.2 13 Oeste 21 Oeste 0 918.4 -0.2 59
2019-10-22 19:00:00 11.6 10 Sudoeste 24 Oeste 0 918.6 -0.3 66
2019-10-22 18:00:00 12.2 4 Noroeste 9 Noroeste 0 918.5 -1.3 62
2019-10-22 17:00:00 12.6 5 Norte 13 Noroeste 0 918.6 -1.8 62
2019-10-22 16:00:00 12 8 Noroeste 16 Noroeste 0 918.9 -1.8 63
2019-10-22 15:00:00 12 10 Noroeste 17 Norte 0 919.8 -1.6 62
2019-10-22 14:00:00 11.8 8 Noroeste 17 Noroeste 0 920.4 -1.4 71
2019-10-22 13:00:00 11.5 10 Noroeste 16 Noroeste 0 920.7 -1 73
2019-10-22 12:00:00 10.3 4 Noroeste 12 Noroeste 0 921.4 0 83
2019-10-22 11:00:00 9.8 5 Nordeste 10 Oeste 0 921.8 0.3 84
2019-10-22 10:00:00 8.9 8 Oeste 12 Oeste 0 921.7 -0.2 91
2019-10-22 09:00:00 8.7 4 Oeste 8 Noroeste 0 921.4 -1.6 90
2019-10-22 08:00:00 8.9 4 Noroeste 9 Sur 0 921.5 -1 88
2019-10-22 07:00:00 8.8 3 Sur 6 Sudoeste 0 921.9 -1.4 91
2019-10-22 06:00:00 8.8 4 Sudeste 10 Sur 0 923 -1.2 89
2019-10-22 05:00:00 9.3 6 Oeste 9 Noroeste 0 922.5 -2.6 84
2019-10-22 04:00:00 9.3 4 Noroeste 11 Oeste 0 923.3 -2.5 84
2019-10-22 03:00:00 9.3 6 Noroeste 10 Oeste 0 924.2 -1.7 85
2019-10-22 02:00:00 9.6 5 Oeste 10 Norte 0 925.1 -1.5 86
2019-10-22 01:00:00 9.5 3 Norte 9 Sudoeste 0 925.8 -0.1 88
2019-10-22 00:00:00 9.3 6 Sur 11 Sudeste 0 925.9 0.2 91
2019-10-21 23:00:00 8.9 7 Sudeste 11 Sudeste 0 926.6 0.7 87
2019-10-21 22:00:00 10.2 8 Sudeste 15 Sudeste 0 925.9 0.6 82
2019-10-21 21:00:00 11 8 Sur 18 Sur 0 925.7 0.4 74
2019-10-21 20:00:00 12.4 12 Sur 20 Sur 0 925.9 0.6 66
2019-10-21 19:00:00 14.9 12 Sudeste 23 Sudeste 0 925.3 -0.2 52
2019-10-21 18:00:00 16.6 3 Noroeste 19 Oeste 0 925.3 -0.7 39
2019-10-21 17:00:00 18 7 Noroeste 15 Noroeste 0 925.3 -1.3 37
2019-10-21 16:00:00 17.2 8 Norte 14 Norte 0 925.5 -1.9 37
2019-10-21 15:00:00 16.6 7 Noroeste 13 Norte 0 926 -1.6 41
2019-10-21 14:00:00 14.8 5 Norte 12 Norte 0 926.6 -1.1 54
2019-10-21 13:00:00 11.9 5 Norte 10 Oeste 0 927.4 -0.1 67
2019-10-21 12:00:00 8.9 4 Noroeste 8 Noroeste 0 927.6 0.6 79
2019-10-21 11:00:00 5.6 3 Noroeste 7 Norte 0 927.7 1.1 95
2019-10-21 10:00:00 3.6 2 Norte 6 Noroeste 0 927.5 1.3 97
2019-10-21 09:00:00 2.1 3 Noroeste 5 Noroeste 0 927 0.9 97
2019-10-21 08:00:00 2.2 4 Sur 8 Sudeste 0 926.6 0 95
2019-10-21 07:00:00 2.6 4 Sur 9 Sudeste 0 926.2 -0.3 95
2019-10-21 06:00:00 3 5 Sudeste 6 Sudeste 0 926.1 -0.3 92
2019-10-21 05:00:00 4.1 4 Oeste 9 Noroeste 0 926.6 -0.1 93
2019-10-21 04:00:00 4.4 6 Noroeste 13 Sudeste 0 926.5 0.1 90
2019-10-21 03:00:00 4.6 9 Sudeste 14 Sudeste 0 926.4 0.4 88
2019-10-21 02:00:00 5.7 9 Sudeste 15 Este 0 926.7 0.7 85
2019-10-21 01:00:00 7.7 7 Sur 13 Sudeste 0 926.4 1 76
2019-10-21 00:00:00 8.7 10 Oeste 17 Oeste 0 926 1 72
2019-10-20 23:00:00 9.2 7 Oeste 14 Oeste 0 926 1.4 72
2019-10-20 22:00:00 10.4 6 Oeste 12 Oeste 0 925.4 1.7 71
2019-10-20 21:00:00 10.8 4 Oeste 22 Noroeste 0 925 2.1 70
2019-10-20 20:00:00 12.3 12 Oeste 22 Oeste 0 924.6 2 64
2019-10-20 19:00:00 14.9 11 Noroeste 25 Oeste 0 923.7 1.5 54
2019-10-20 18:00:00 16.3 15 Noroeste 37 Oeste 0 922.9 0.3 49
2019-10-20 17:00:00 16.2 20 Oeste 34 Oeste 0 922.6 0.1 42
2019-10-20 16:00:00 16.4 18 Oeste 30 Oeste 0 922.2 0.1 44
2019-10-20 15:00:00 14.4 14 Oeste 30 Oeste 0 922.6 0.8 55
2019-10-20 14:00:00 12.9 18 Oeste 27 Oeste 0 922.5 0.4 59
2019-10-20 13:00:00 12.2 6 Oeste 20 Noroeste 0 922.1 1.2 70
2019-10-20 12:00:00 11.2 10 Norte 21 Norte 0 921.8 0.9 80
2019-10-20 11:00:00 10.8 13 Noroeste 21 Noroeste 0 922.1 0.5 82
2019-10-20 10:00:00 10.1 7 Nordeste 17 Norte 0.4 920.9 -0.3 86
2019-10-20 09:00:00 10.6 4 Nordeste 15 Sudoeste 0.4 920.9 -0.2 82
2019-10-20 08:00:00 11.2 4 Oeste 20 Oeste 0.2 921.6 2.1 80
2019-10-20 07:00:00 11.5 10 Oeste 37 Oeste 0 921.2 3.1 76
2019-10-20 06:00:00 12.2 19 Oeste 39 Oeste 0.4 921.1 2.2 76
2019-10-20 05:00:00 12.6 30 Oeste 55 Sudoeste 1 919.5 0.1 84
2019-10-20 04:00:00 15.7 6 Sur 16 Oeste 0 918.1 -2 65
2019-10-20 03:00:00 17 10 Sudoeste 31 Sudoeste 0 918.9 -1.3 59
2019-10-20 02:00:00 17.3 9 Sudoeste 29 Sur 0 919.4 -0.7 53
2019-10-20 01:00:00 17.2 12 Sudoeste 25 Sudoeste 0 920.1 0.2 55
2019-10-20 00:00:00 17.1 12 Oeste 34 Sudoeste 0 920.2 0.2 56
2019-10-19 23:00:00 16.7 7 Oeste 18 Oeste 0 920.1 0.3 57
2019-10-19 22:00:00 16.8 8 Oeste 14 Sudoeste 0 919.9 0 56
2019-10-19 21:00:00 17.3 4 Sudeste 12 Sudeste 0 920 -0.1 56
2019-10-19 20:00:00 19.1 7 Oeste 36 Oeste 0 919.8 -0.8 53
2019-10-19 19:00:00 20.8 15 Oeste 26 Oeste 0 919.9 -1 44
2019-10-19 18:00:00 21.5 13 Noroeste 25 Noroeste 0 920.1 -1.4 49
2019-10-19 17:00:00 23.3 17 Oeste 28 Noroeste 0 920.6 -1.9 43
2019-10-19 16:00:00 23.9 8 Oeste 19 Oeste 0 920.9 -2.6 39
2019-10-19 15:00:00 23 8 Noroeste 14 Nordeste 0 921.5 -2.8 48
2019-10-19 14:00:00 20.6 7 Nordeste 18 Norte 0 922.5 -2.3 56
2019-10-19 13:00:00 19.5 12 Norte 27 Norte 0 923.5 -1.2 59
2019-10-19 12:00:00 17.8 12 Noroeste 20 Noroeste 0 924.3 0 69
2019-10-19 11:00:00 16.3 8 Noroeste 13 Noroeste 0 924.8 0.7 76
2019-10-19 10:00:00 13 2 Sur 12 Sudeste 0 924.7 0.4 86
2019-10-19 09:00:00 11.9 5 Sudeste 12 Sudeste 0 924.3 -0.1 87
2019-10-19 08:00:00 12 6 Sudeste 9 Sudeste 0 924.1 -0.6 93
2019-10-19 07:00:00 10.3 5 Sudeste 8 Sudeste 0 924.3 -1 93
2019-10-19 06:00:00 9.9 6 Sur 11 Sur 0 924.4 -1.5 89
2019-10-19 05:00:00 10.7 8 Sur 13 Sur 0 924.7 -1.6 82
2019-10-19 04:00:00 11.7 9 Sur 13 Sur 0 925.3 -1.3 81
2019-10-19 03:00:00 14.4 4 Oeste 12 Noroeste 0 925.9 -1 80
2019-10-19 02:00:00 15.3 13 Noroeste 21 Oeste 0 926.3 -0.6 78
2019-10-19 01:00:00 11.8 5 Sur 10 Sudeste 0 926.6 -0.1 75
2019-10-19 00:00:00 12.8 9 Sur 12 Sudeste 0 926.9 0 70
2019-10-18 23:00:00 13.9 8 Sur 12 Sur 0 926.9 0.4 66
2019-10-18 22:00:00 17.5 4 Sudoeste 18 Sudoeste 0 926.7 0.1 59
2019-10-18 21:00:00 18.7 12 Oeste 24 Oeste 0 926.9 0.2 55
2019-10-18 20:00:00 19.7 4 Oeste 9 Oeste 0 926.5 -0.5 52
2019-10-18 19:00:00 21.9 8 Noroeste 16 Noroeste 0 926.6 -0.7 43
2019-10-18 18:00:00 23.2 10 Noroeste 21 Noroeste 0 926.7 -1.2 37
2019-10-18 17:00:00 24.9 13 Noroeste 24 Noroeste 0 927 -2.2 32
2019-10-18 16:00:00 24.2 14 Noroeste 29 Noroeste 0 927.3 -2.6 32
2019-10-18 15:00:00 23.1 17 Noroeste 24 Noroeste 0 927.9 -2.2 35
2019-10-18 14:00:00 20.1 9 Norte 16 Nordeste 0 929.2 -1.4 38
2019-10-18 13:00:00 16.8 4 Norte 13 Norte 0 929.9 -0.3 46
2019-10-18 12:00:00 14.2 2 Noroeste 9 Norte 0 930.1 0.4 50
2019-10-18 11:00:00 10.6 7 Norte 10 Norte 0 930.6 0.8 66
2019-10-18 10:00:00 7.9 4 Oeste 10 Sudeste 0 930.2 0.7 83
2019-10-18 09:00:00 5.2 6 Sur 9 Sur 0 929.7 -0.1 88
2019-10-18 08:00:00 5.9 5 Sudeste 6 Sudeste 0 929.8 0 82
2019-10-18 07:00:00 6.6 3 Sur 9 Sudeste 0 929.5 -0.8 80
2019-10-18 06:00:00 7.1 4 Este 8 Sudoeste 0 929.8 -0.5 75
2019-10-18 05:00:00 7.6 8 Sur 10 Sur 0 929.8 -0.7 75
2019-10-18 04:00:00 8.8 2 Sur 9 Sur 0 930.3 -0.3 65
2019-10-18 03:00:00 9.1 8 Sur 11 Sur 0 930.3 -0.4 65
2019-10-18 02:00:00 10.1 6 Sur 11 Sur 0 930.5 0 59
2019-10-18 01:00:00 10.8 7 Sudeste 12 Sudeste 0 930.6 0.7 52
2019-10-18 00:00:00 12.8 8 Sur 14 Oeste 0 930.7 1.5 46
2019-10-17 23:00:00 15.9 12 Oeste 19 Oeste 0 930.5 1.8 37
2019-10-17 22:00:00 17.1 14 Oeste 25 Oeste 0 929.9 1.4 32
2019-10-17 21:00:00 17.2 12 Oeste 23 Oeste 0 929.2 0.7 33
2019-10-17 20:00:00 18.7 5 Oeste 26 Oeste 0 928.7 0.1 29
2019-10-17 19:00:00 21.4 15 Oeste 26 Oeste 0 928.5 -0.7 25
2019-10-17 18:00:00 21.2 12 Oeste 24 Noroeste 0 928.5 -1 24
2019-10-17 17:00:00 23.1 14 Oeste 26 Oeste 0 928.6 -1.7 17
2019-10-17 16:00:00 22.1 17 Oeste 29 Oeste 0 929.2 -1.6 21
2019-10-17 15:00:00 20.7 18 Oeste 31 Oeste 0 929.5 -1.4 24
2019-10-17 14:00:00 19.2 22 Oeste 33 Oeste 0 930.3 -0.5 27
2019-10-17 13:00:00 17.7 21 Oeste 31 Oeste 0 930.8 0.3 32
2019-10-17 12:00:00 12.5 7 Norte 11 Norte 0 930.9 1.1 54
2019-10-17 11:00:00 8.7 3 Norte 8 Noroeste 0 930.8 1.2 63
2019-10-17 10:00:00 5.9 4 Oeste 8 Noroeste 0 930.5 1.1 75
2019-10-17 09:00:00 2.9 5 Sur 7 Sur 0 929.8 0.6 86
2019-10-17 08:00:00 4.4 4 Oeste 7 Oeste 0 929.6 0 82
2019-10-17 07:00:00 4.1 2 Este 6 Sudeste 0 929.4 -0.2 84
2019-10-17 06:00:00 5 2 Sudoeste 10 Sur 0 929.2 -0.3 78
2019-10-17 05:00:00 4.5 8 Sudeste 9 Sudeste 0 929.6 0.1 81
2019-10-17 04:00:00 6.1 2 Noroeste 5 Sudeste 0 929.6 -0.3 71
2019-10-17 03:00:00 7.5 2 Sudoeste 14 Sudeste 0 929.5 -0.6 63
2019-10-17 02:00:00 7.8 8 Este 13 Sudeste 0 929.5 -0.3 63
2019-10-17 01:00:00 9.6 6 Sudoeste 15 Sudoeste 0 929.9 0.6 58
2019-10-17 00:00:00 13.2 9 Sudoeste 14 Sudoeste 0 930.1 1.5 41
2019-10-16 23:00:00 11.8 8 Sur 14 Oeste 0 929.8 1.8 50
2019-10-16 22:00:00 12.2 5 Sur 10 Oeste 0 929.3 1.3 47
2019-10-16 21:00:00 13.8 6 Sur 14 Sudeste 0 928.6 0.5 43
2019-10-16 20:00:00 19 7 Oeste 9 Oeste 0 928 -0.6 29
2019-10-16 19:00:00 22.4 4 Norte 10 Norte 0 928 -1.1 19
2019-10-16 18:00:00 22.9 4 Norte 13 Norte 0 928.1 -1.6 18
2019-10-16 17:00:00 23 8 Noroeste 20 Noroeste 0 928.6 -1.9 18
2019-10-16 16:00:00 22.2 12 Oeste 24 Oeste 0 929.1 -2.3 14
2019-10-16 15:00:00 20.6 12 Noroeste 19 Noroeste 0 929.7 -2.3 18
2019-10-16 14:00:00 18.2 6 Noroeste 12 Noroeste 0 930.5 -1.4 34
2019-10-16 13:00:00 14.6 4 Nordeste 8 Este 0 931.4 -0.2 48
2019-10-16 12:00:00 10.9 3 Oeste 8 Noroeste 0 932 0.8 60
2019-10-16 11:00:00 6.9 3 Este 8 Norte 0 931.9 0.7 74
2019-10-16 10:00:00 4.6 4 Norte 7 Noroeste 0 931.6 0.5 87
2019-10-16 09:00:00 1.7 5 Sudeste 6 Sur 0 931.2 0.1 92
2019-10-16 08:00:00 2.2 5 Sudeste 7 Sudeste 0 931.2 -0.1 89
2019-10-16 07:00:00 2.6 4 Sur 8 Sudeste 0 931.1 -0.1 89
2019-10-16 06:00:00 3.3 6 Sudoeste 10 Sudeste 0 931.1 -0.2 89
2019-10-16 05:00:00 4.1 4 Sudeste 6 Sur 0 931.3 -0.2 83
2019-10-16 04:00:00 5 2 Nordeste 10 Sur 0 931.2 -0.5 79
2019-10-16 03:00:00 5.4 7 Sur 10 Sur 0 931.3 -0.3 78
2019-10-16 02:00:00 5.9 4 Sudeste 10 Sudeste 0 931.5 -0.1 77
2019-10-16 01:00:00 6.6 7 Sudeste 11 Sudeste 0 931.7 0.4 72
2019-10-16 00:00:00 7.9 8 Sudeste 13 Sur 0 931.6 0.8 62
2019-10-15 23:00:00 8.9 6 Sur 12 Sudeste 0 931.6 1.6 58
2019-10-15 22:00:00 11.3 6 Sur 13 Sur 0 931.3 1.5 48
2019-10-15 21:00:00 13.7 6 Sur 17 Oeste 0 930.8 1.2 40
2019-10-15 20:00:00 15.6 6 Oeste 14 Sudoeste 0 930 0.3 33
2019-10-15 19:00:00 18.4 10 Oeste 24 Oeste 0 929.8 -0.1 24
2019-10-15 18:00:00 19.3 13 Noroeste 23 Oeste 0 929.6 -0.5 19
2019-10-15 17:00:00 19.2 14 Oeste 23 Oeste 0 929.7 -1.1 20
2019-10-15 16:00:00 18.6 15 Oeste 25 Oeste 0 929.9 -1.5 23
2019-10-15 15:00:00 17.5 17 Oeste 25 Oeste 0 930.1 -1.6 32
2019-10-15 14:00:00 16.4 14 Noroeste 24 Noroeste 0 930.8 -0.6 36
2019-10-15 13:00:00 14.2 10 Oeste 25 Oeste 0 931.4 0.3 43
2019-10-15 12:00:00 12.9 14 Noroeste 22 Noroeste 0 931.7 1.4 60
2019-10-15 11:00:00 11.2 11 Oeste 16 Noroeste 0 931.4 1.4 76
2019-10-15 10:00:00 9.4 9 Oeste 15 Oeste 0 931.1 1.3 83
2019-10-15 09:00:00 8.2 10 Oeste 14 Noroeste 0 930.3 0.9 84
2019-10-15 08:00:00 7.2 3 Norte 8 Nordeste 0 930 0.6 91
2019-10-15 07:00:00 7.8 5 Norte 9 Nordeste 0 929.8 0.3 88
2019-10-15 06:00:00 9.2 9 Noroeste 21 Oeste 0 929.4 -0.4 84
2019-10-15 05:00:00 10 13 Oeste 24 Oeste 0 929.4 0 85
2019-10-15 04:00:00 10.5 13 Oeste 20 Oeste 0 929.5 0.6 85
2019-10-15 03:00:00 11.1 11 Oeste 26 Noroeste 0 929.8 1.5 89
2019-10-15 02:00:00 11.6 13 Noroeste 26 Noroeste 0 929.4 1.7 91
2019-10-15 01:00:00 14.2 19 Oeste 31 Oeste 0 928.9 1.5 66
2019-10-15 00:00:00 14.4 16 Oeste 36 Oeste 0 928.3 1.3 54
2019-10-14 23:00:00 15.4 13 Oeste 28 Oeste 0 927.7 1.2 53
2019-10-14 22:00:00 16.1 13 Oeste 27 Oeste 0 927.4 1.7 52
2019-10-14 21:00:00 17.1 10 Oeste 34 Oeste 0 927 1.9 49
2019-10-14 20:00:00 18.4 21 Oeste 37 Oeste 0 926.5 1.5 46
2019-10-14 19:00:00 20.6 21 Oeste 48 Oeste 0 925.7 0.9 37
2019-10-14 18:00:00 22.2 32 Oeste 60 Oeste 0 925.1 -0.1 33
2019-10-14 17:00:00 22.3 31 Oeste 57 Oeste 0 925 -0.9 38
2019-10-14 16:00:00 22.4 30 Oeste 45 Oeste 0 924.8 -1.5 38
2019-10-14 15:00:00 23.4 23 Oeste 49 Oeste 0 925.2 -1.2 39
2019-10-14 14:00:00 22.5 18 Oeste 32 Oeste 0 925.9 -0.2 50
2019-10-14 13:00:00 20.6 15 Noroeste 32 Noroeste 0 926.3 0.2 58
2019-10-14 12:00:00 18.5 17 Oeste 26 Oeste 0 926.4 0.6 66
2019-10-14 11:00:00 17.3 6 Norte 17 Norte 0 926.1 1 66
2019-10-14 10:00:00 15.9 3 Norte 16 Oeste 0 926.1 1.6 66
2019-10-14 09:00:00 14.4 7 Sudeste 11 Sudeste 0 925.8 1.1 68
2019-10-14 08:00:00 15.3 5 Noroeste 14 Oeste 0 925.1 0.3 63
2019-10-14 07:00:00 14 7 Oeste 12 Oeste 0 924.5 -0.9 74
2019-10-14 06:00:00 15.1 4 Sudeste 13 Este 0 924.7 -1.7 77
2019-10-14 05:00:00 16.8 8 Este 21 Sudeste 0 924.8 -2.1 62
2019-10-14 04:00:00 16.2 3 Oeste 20 Sudeste 0 925.4 -2.3 68
2019-10-14 03:00:00 16 8 Sudeste 14 Sudeste 0 926.4 -1.3 67
2019-10-14 02:00:00 15 4 Sur 8 Sur 0 926.9 -0.5 80
2019-10-14 01:00:00 16.1 4 Sur 13 Este 0 927.7 0.4 88
2019-10-14 00:00:00 17.4 6 Este 19 Sudeste 0 927.7 0.6 92